sensor_id;sensor_type;location;lat;lon;timestamp;P1;durP1;ratioP1;P2;durP2;ratioP2
53775;SDS011;44276;49.534;6.378;2023-11-21T00:00:08;8.50;;;4.72;;
53775;SDS011;44276;49.534;6.378;2023-11-21T00:02:39;7.13;;;4.47;;
53775;SDS011;44276;49.534;6.378;2023-11-21T00:05:08;6.75;;;4.30;;
53775;SDS011;44276;49.534;6.378;2023-11-21T00:07:38;6.43;;;4.20;;
53775;SDS011;44276;49.534;6.378;2023-11-21T00:10:07;6.55;;;3.42;;
53775;SDS011;44276;49.534;6.378;2023-11-21T00:12:37;9.50;;;4.13;;
53775;SDS011;44276;49.534;6.378;2023-11-21T00:15:08;8.68;;;4.00;;
53775;SDS011;44276;49.534;6.378;2023-11-21T00:17:38;12.25;;;3.97;;
53775;SDS011;44276;49.534;6.378;2023-11-21T00:20:07;10.63;;;4.57;;
53775;SDS011;44276;49.534;6.378;2023-11-21T00:22:41;7.43;;;3.90;;
53775;SDS011;44276;49.534;6.378;2023-11-21T00:25:09;7.57;;;3.95;;
53775;SDS011;44276;49.534;6.378;2023-11-21T00:27:39;9.90;;;3.47;;
53775;SDS011;44276;49.534;6.378;2023-11-21T00:30:08;4.72;;;2.72;;
53775;SDS011;44276;49.534;6.378;2023-11-21T00:32:37;5.40;;;3.05;;
53775;SDS011;44276;49.534;6.378;2023-11-21T00:35:06;5.88;;;3.75;;
53775;SDS011;44276;49.534;6.378;2023-11-21T00:37:35;5.22;;;3.10;;
53775;SDS011;44276;49.534;6.378;2023-11-21T00:40:07;2.78;;;1.92;;
53775;SDS011;44276;49.534;6.378;2023-11-21T00:42:37;2.70;;;2.03;;
53775;SDS011;44276;49.534;6.378;2023-11-21T00:45:06;3.47;;;1.92;;
53775;SDS011;44276;49.534;6.378;2023-11-21T00:47:36;4.60;;;1.80;;
53775;SDS011;44276;49.534;6.378;2023-11-21T00:50:05;2.45;;;1.85;;
53775;SDS011;44276;49.534;6.378;2023-11-21T00:52:34;2.85;;;1.98;;
53775;SDS011;44276;49.534;6.378;2023-11-21T00:55:03;1.95;;;1.30;;
53775;SDS011;44276;49.534;6.378;2023-11-21T00:57:35;1.98;;;1.20;;
53775;SDS011;44276;49.534;6.378;2023-11-21T01:00:04;2.15;;;1.10;;
53775;SDS011;44276;49.534;6.378;2023-11-21T01:02:35;2.00;;;1.00;;
53775;SDS011;44276;49.534;6.378;2023-11-21T01:05:04;1.45;;;0.80;;
53775;SDS011;44276;49.534;6.378;2023-11-21T01:07:34;1.17;;;0.90;;
53775;SDS011;44276;49.534;6.378;2023-11-21T01:10:03;0.95;;;0.80;;
53775;SDS011;44276;49.534;6.378;2023-11-21T01:12:35;1.10;;;0.90;;
53775;SDS011;44276;49.534;6.378;2023-11-21T01:15:05;0.60;;;0.50;;
53775;SDS011;44276;49.534;6.378;2023-11-21T01:17:35;1.35;;;1.10;;
53775;SDS011;44276;49.534;6.378;2023-11-21T01:20:05;1.00;;;0.60;;
53775;SDS011;44276;49.534;6.378;2023-11-21T01:22:40;4.93;;;0.65;;
53775;SDS011;44276;49.534;6.378;2023-11-21T01:25:10;1.00;;;0.73;;
53775;SDS011;44276;49.534;6.378;2023-11-21T01:27:42;1.02;;;0.85;;
53775;SDS011;44276;49.534;6.378;2023-11-21T01:30:10;1.15;;;0.70;;
53775;SDS011;44276;49.534;6.378;2023-11-21T01:32:39;0.85;;;0.70;;
53775;SDS011;44276;49.534;6.378;2023-11-21T01:35:08;2.67;;;0.95;;
53775;SDS011;44276;49.534;6.378;2023-11-21T01:37:37;1.30;;;0.60;;
53775;SDS011;44276;49.534;6.378;2023-11-21T01:40:06;2.25;;;1.38;;
53775;SDS011;44276;49.534;6.378;2023-11-21T01:42:41;1.48;;;0.98;;
53775;SDS011;44276;49.534;6.378;2023-11-21T01:45:11;3.08;;;1.02;;
53775;SDS011;44276;49.534;6.378;2023-11-21T01:47:39;1.80;;;1.20;;
53775;SDS011;44276;49.534;6.378;2023-11-21T01:50:11;2.30;;;1.38;;
53775;SDS011;44276;49.534;6.378;2023-11-21T01:52:45;1.83;;;1.10;;
53775;SDS011;44276;49.534;6.378;2023-11-21T01:55:15;2.20;;;1.42;;
53775;SDS011;44276;49.534;6.378;2023-11-21T01:57:55;3.17;;;1.52;;
53775;SDS011;44276;49.534;6.378;2023-11-21T02:00:24;3.47;;;1.50;;
53775;SDS011;44276;49.534;6.378;2023-11-21T02:02:55;1.73;;;1.10;;
53775;SDS011;44276;49.534;6.378;2023-11-21T02:05:26;3.30;;;1.73;;
53775;SDS011;44276;49.534;6.378;2023-11-21T02:07:55;2.40;;;1.40;;
53775;SDS011;44276;49.534;6.378;2023-11-21T02:10:23;2.58;;;1.55;;
53775;SDS011;44276;49.534;6.378;2023-11-21T02:12:52;3.08;;;1.42;;
53775;SDS011;44276;49.534;6.378;2023-11-21T02:15:21;4.03;;;2.00;;
53775;SDS011;44276;49.534;6.378;2023-11-21T02:17:53;2.97;;;1.60;;
53775;SDS011;44276;49.534;6.378;2023-11-21T02:20:22;4.20;;;1.40;;
53775;SDS011;44276;49.534;6.378;2023-11-21T02:22:53;2.33;;;1.90;;
53775;SDS011;44276;49.534;6.378;2023-11-21T02:25:26;2.45;;;1.65;;
53775;SDS011;44276;49.534;6.378;2023-11-21T02:27:58;2.80;;;1.63;;
53775;SDS011;44276;49.534;6.378;2023-11-21T02:30:29;2.35;;;1.38;;
53775;SDS011;44276;49.534;6.378;2023-11-21T02:32:58;5.10;;;1.77;;
53775;SDS011;44276;49.534;6.378;2023-11-21T02:35:28;2.50;;;1.58;;
53775;SDS011;44276;49.534;6.378;2023-11-21T02:37:59;4.20;;;1.58;;
53775;SDS011;44276;49.534;6.378;2023-11-21T02:40:28;1.73;;;1.20;;
53775;SDS011;44276;49.534;6.378;2023-11-21T02:42:57;3.63;;;1.33;;
53775;SDS011;44276;49.534;6.378;2023-11-21T02:45:26;3.10;;;1.42;;
53775;SDS011;44276;49.534;6.378;2023-11-21T02:47:54;5.72;;;1.58;;
53775;SDS011;44276;49.534;6.378;2023-11-21T02:50:25;3.90;;;1.42;;
53775;SDS011;44276;49.534;6.378;2023-11-21T02:52:54;2.88;;;1.70;;
53775;SDS011;44276;49.534;6.378;2023-11-21T02:55:25;2.35;;;1.20;;
53775;SDS011;44276;49.534;6.378;2023-11-21T02:57:54;2.35;;;1.20;;
53775;SDS011;44276;49.534;6.378;2023-11-21T03:00:23;2.47;;;1.25;;
53775;SDS011;44276;49.534;6.378;2023-11-21T03:02:53;7.28;;;1.77;;
53775;SDS011;44276;49.534;6.378;2023-11-21T03:05:24;3.30;;;1.30;;
53775;SDS011;44276;49.534;6.378;2023-11-21T03:07:52;2.22;;;1.38;;
53775;SDS011;44276;49.534;6.378;2023-11-21T03:10:20;2.22;;;1.38;;
53775;SDS011;44276;49.534;6.378;2023-11-21T03:12:51;2.55;;;1.80;;
53775;SDS011;44276;49.534;6.378;2023-11-21T03:15:19;13.27;;;2.42;;
53775;SDS011;44276;49.534;6.378;2023-11-21T03:17:47;2.38;;;1.02;;
53775;SDS011;44276;49.534;6.378;2023-11-21T03:20:16;1.95;;;1.25;;
53775;SDS011;44276;49.534;6.378;2023-11-21T03:22:44;5.43;;;2.22;;
53775;SDS011;44276;49.534;6.378;2023-11-21T03:25:13;1.77;;;1.42;;
53775;SDS011;44276;49.534;6.378;2023-11-21T03:27:43;2.00;;;1.48;;
53775;SDS011;44276;49.534;6.378;2023-11-21T03:30:13;3.00;;;2.03;;
53775;SDS011;44276;49.534;6.378;2023-11-21T03:32:43;6.15;;;1.58;;
53775;SDS011;44276;49.534;6.378;2023-11-21T03:35:11;3.95;;;1.52;;
53775;SDS011;44276;49.534;6.378;2023-11-21T03:37:39;4.55;;;1.75;;
53775;SDS011;44276;49.534;6.378;2023-11-21T03:40:09;2.83;;;1.60;;
53775;SDS011;44276;49.534;6.378;2023-11-21T03:42:39;2.53;;;2.05;;
53775;SDS011;44276;49.534;6.378;2023-11-21T03:45:08;5.40;;;2.80;;
53775;SDS011;44276;49.534;6.378;2023-11-21T03:47:40;3.92;;;2.25;;
53775;SDS011;44276;49.534;6.378;2023-11-21T03:50:09;4.65;;;2.30;;
53775;SDS011;44276;49.534;6.378;2023-11-21T03:52:38;5.43;;;2.50;;
53775;SDS011;44276;49.534;6.378;2023-11-21T03:55:06;6.95;;;2.22;;
53775;SDS011;44276;49.534;6.378;2023-11-21T03:57:36;4.57;;;1.65;;
53775;SDS011;44276;49.534;6.378;2023-11-21T04:00:05;3.60;;;2.40;;
53775;SDS011;44276;49.534;6.378;2023-11-21T04:02:36;3.22;;;2.17;;
53775;SDS011;44276;49.534;6.378;2023-11-21T04:05:06;3.53;;;1.90;;
53775;SDS011;44276;49.534;6.378;2023-11-21T04:07:35;3.63;;;2.28;;
53775;SDS011;44276;49.534;6.378;2023-11-21T04:10:05;6.95;;;2.08;;
53775;SDS011;44276;49.534;6.378;2023-11-21T04:12:35;4.70;;;2.15;;
53775;SDS011;44276;49.534;6.378;2023-11-21T04:15:04;3.85;;;2.05;;
53775;SDS011;44276;49.534;6.378;2023-11-21T04:17:35;3.60;;;1.90;;
53775;SDS011;44276;49.534;6.378;2023-11-21T04:20:06;3.92;;;2.47;;
53775;SDS011;44276;49.534;6.378;2023-11-21T04:22:37;4.15;;;2.38;;
53775;SDS011;44276;49.534;6.378;2023-11-21T04:25:08;4.82;;;2.13;;
53775;SDS011;44276;49.534;6.378;2023-11-21T04:27:38;6.50;;;3.15;;
53775;SDS011;44276;49.534;6.378;2023-11-21T04:30:07;4.07;;;1.92;;
53775;SDS011;44276;49.534;6.378;2023-11-21T04:32:37;4.78;;;2.55;;
53775;SDS011;44276;49.534;6.378;2023-11-21T04:35:08;3.65;;;1.88;;
53775;SDS011;44276;49.534;6.378;2023-11-21T04:37:36;3.33;;;2.08;;
53775;SDS011;44276;49.534;6.378;2023-11-21T04:40:05;4.85;;;2.90;;
53775;SDS011;44276;49.534;6.378;2023-11-21T04:42:35;3.25;;;1.63;;
53775;SDS011;44276;49.534;6.378;2023-11-21T04:45:04;3.60;;;1.92;;
53775;SDS011;44276;49.534;6.378;2023-11-21T04:47:37;3.17;;;1.83;;
53775;SDS011;44276;49.534;6.378;2023-11-21T04:50:06;5.22;;;1.80;;
53775;SDS011;44276;49.534;6.378;2023-11-21T04:52:36;3.58;;;2.03;;
53775;SDS011;44276;49.534;6.378;2023-11-21T04:55:04;5.10;;;2.00;;
53775;SDS011;44276;49.534;6.378;2023-11-21T04:57:36;5.00;;;1.92;;
53775;SDS011;44276;49.534;6.378;2023-11-21T05:00:05;3.25;;;1.75;;
53775;SDS011;44276;49.534;6.378;2023-11-21T05:02:35;3.30;;;1.52;;
53775;SDS011;44276;49.534;6.378;2023-11-21T05:05:05;3.20;;;1.80;;
53775;SDS011;44276;49.534;6.378;2023-11-21T05:07:36;4.80;;;3.03;;
53775;SDS011;44276;49.534;6.378;2023-11-21T05:10:06;4.10;;;1.70;;
53775;SDS011;44276;49.534;6.378;2023-11-21T05:12:39;4.15;;;1.20;;
53775;SDS011;44276;49.534;6.378;2023-11-21T05:15:09;3.17;;;1.58;;
53775;SDS011;44276;49.534;6.378;2023-11-21T05:17:42;10.40;;;5.93;;
53775;SDS011;44276;49.534;6.378;2023-11-21T05:20:14;4.82;;;2.90;;
53775;SDS011;44276;49.534;6.378;2023-11-21T05:22:47;2.47;;;2.03;;
53775;SDS011;44276;49.534;6.378;2023-11-21T05:25:15;3.97;;;1.90;;
53775;SDS011;44276;49.534;6.378;2023-11-21T05:27:45;3.28;;;1.90;;
53775;SDS011;44276;49.534;6.378;2023-11-21T05:30:14;2.70;;;1.92;;
53775;SDS011;44276;49.534;6.378;2023-11-21T05:32:42;8.02;;;3.80;;
53775;SDS011;44276;49.534;6.378;2023-11-21T05:35:10;8.02;;;3.58;;
53775;SDS011;44276;49.534;6.378;2023-11-21T05:37:44;3.97;;;2.13;;
53775;SDS011;44276;49.534;6.378;2023-11-21T05:40:13;7.22;;;3.60;;
53775;SDS011;44276;49.534;6.378;2023-11-21T05:42:43;7.15;;;4.35;;
53775;SDS011;44276;49.534;6.378;2023-11-21T05:45:12;6.57;;;2.97;;
53775;SDS011;44276;49.534;6.378;2023-11-21T05:47:42;6.72;;;2.47;;
53775;SDS011;44276;49.534;6.378;2023-11-21T05:50:13;4.00;;;2.30;;
53775;SDS011;44276;49.534;6.378;2023-11-21T05:52:46;5.10;;;2.45;;
53775;SDS011;44276;49.534;6.378;2023-11-21T05:55:16;4.43;;;2.30;;
53775;SDS011;44276;49.534;6.378;2023-11-21T05:57:44;6.25;;;3.22;;
53775;SDS011;44276;49.534;6.378;2023-11-21T06:00:14;4.53;;;2.78;;
53775;SDS011;44276;49.534;6.378;2023-11-21T06:02:48;5.28;;;2.83;;
53775;SDS011;44276;49.534;6.378;2023-11-21T06:05:19;4.68;;;2.47;;
53775;SDS011;44276;49.534;6.378;2023-11-21T06:07:53;5.80;;;2.97;;
53775;SDS011;44276;49.534;6.378;2023-11-21T06:10:25;5.78;;;3.55;;
53775;SDS011;44276;49.534;6.378;2023-11-21T06:12:55;6.30;;;3.13;;
53775;SDS011;44276;49.534;6.378;2023-11-21T06:15:28;4.20;;;3.05;;
53775;SDS011;44276;49.534;6.378;2023-11-21T06:17:57;6.40;;;3.10;;
53775;SDS011;44276;49.534;6.378;2023-11-21T06:20:26;4.78;;;2.80;;
53775;SDS011;44276;49.534;6.378;2023-11-21T06:22:55;5.00;;;3.50;;
53775;SDS011;44276;49.534;6.378;2023-11-21T06:25:23;4.97;;;2.40;;
53775;SDS011;44276;49.534;6.378;2023-11-21T06:27:52;5.57;;;2.50;;
53775;SDS011;44276;49.534;6.378;2023-11-21T06:30:20;7.35;;;3.10;;
53775;SDS011;44276;49.534;6.378;2023-11-21T06:32:49;5.18;;;2.80;;
53775;SDS011;44276;49.534;6.378;2023-11-21T06:35:19;9.55;;;3.20;;
53775;SDS011;44276;49.534;6.378;2023-11-21T06:37:49;5.43;;;3.25;;
53775;SDS011;44276;49.534;6.378;2023-11-21T06:40:19;7.38;;;4.45;;
53775;SDS011;44276;49.534;6.378;2023-11-21T06:42:48;9.27;;;4.20;;
53775;SDS011;44276;49.534;6.378;2023-11-21T06:45:17;7.60;;;3.80;;
53775;SDS011;44276;49.534;6.378;2023-11-21T06:47:46;5.35;;;3.38;;
53775;SDS011;44276;49.534;6.378;2023-11-21T06:50:16;7.07;;;3.85;;
53775;SDS011;44276;49.534;6.378;2023-11-21T06:52:44;9.82;;;3.78;;
53775;SDS011;44276;49.534;6.378;2023-11-21T06:55:12;7.15;;;3.50;;
53775;SDS011;44276;49.534;6.378;2023-11-21T06:57:44;7.60;;;3.45;;
53775;SDS011;44276;49.534;6.378;2023-11-21T07:00:14;10.85;;;3.80;;
53775;SDS011;44276;49.534;6.378;2023-11-21T07:02:45;5.85;;;2.42;;
53775;SDS011;44276;49.534;6.378;2023-11-21T07:05:13;12.98;;;2.72;;
53775;SDS011;44276;49.534;6.378;2023-11-21T07:07:41;5.50;;;2.42;;
53775;SDS011;44276;49.534;6.378;2023-11-21T07:10:10;6.38;;;3.47;;
53775;SDS011;44276;49.534;6.378;2023-11-21T07:12:39;15.98;;;4.38;;
53775;SDS011;44276;49.534;6.378;2023-11-21T07:15:09;6.88;;;3.30;;
53775;SDS011;44276;49.534;6.378;2023-11-21T07:17:37;8.75;;;3.15;;
53775;SDS011;44276;49.534;6.378;2023-11-21T07:20:07;5.05;;;3.17;;
53775;SDS011;44276;49.534;6.378;2023-11-21T07:22:37;7.05;;;3.42;;
53775;SDS011;44276;49.534;6.378;2023-11-21T07:25:06;6.45;;;3.08;;
53775;SDS011;44276;49.534;6.378;2023-11-21T07:27:36;10.75;;;3.65;;
53775;SDS011;44276;49.534;6.378;2023-11-21T07:30:04;7.40;;;2.95;;
53775;SDS011;44276;49.534;6.378;2023-11-21T07:32:37;10.20;;;2.83;;
53775;SDS011;44276;49.534;6.378;2023-11-21T07:35:07;5.10;;;3.17;;
53775;SDS011;44276;49.534;6.378;2023-11-21T07:37:36;6.32;;;3.08;;
53775;SDS011;44276;49.534;6.378;2023-11-21T07:40:06;7.68;;;2.83;;
53775;SDS011;44276;49.534;6.378;2023-11-21T07:42:37;7.20;;;3.33;;
53775;SDS011;44276;49.534;6.378;2023-11-21T07:45:06;7.85;;;3.60;;
53775;SDS011;44276;49.534;6.378;2023-11-21T07:47:35;12.45;;;5.22;;
53775;SDS011;44276;49.534;6.378;2023-11-21T07:50:06;9.95;;;5.28;;
53775;SDS011;44276;49.534;6.378;2023-11-21T07:52:36;16.58;;;5.60;;
53775;SDS011;44276;49.534;6.378;2023-11-21T07:55:04;11.15;;;4.63;;
53775;SDS011;44276;49.534;6.378;2023-11-21T07:57:33;8.13;;;3.80;;
53775;SDS011;44276;49.534;6.378;2023-11-21T08:00:02;10.25;;;4.40;;
53775;SDS011;44276;49.534;6.378;2023-11-21T08:02:33;12.07;;;4.15;;
53775;SDS011;44276;49.534;6.378;2023-11-21T08:05:02;9.18;;;4.57;;
53775;SDS011;44276;49.534;6.378;2023-11-21T08:07:31;8.65;;;3.63;;
53775;SDS011;44276;49.534;6.378;2023-11-21T08:09:59;8.35;;;4.07;;
53775;SDS011;44276;49.534;6.378;2023-11-21T08:12:27;11.50;;;4.15;;
53775;SDS011;44276;49.534;6.378;2023-11-21T08:14:55;7.40;;;3.70;;
53775;SDS011;44276;49.534;6.378;2023-11-21T08:17:23;6.18;;;3.90;;
53775;SDS011;44276;49.534;6.378;2023-11-21T08:19:52;12.75;;;3.97;;
53775;SDS011;44276;49.534;6.378;2023-11-21T08:22:21;8.30;;;4.13;;
53775;SDS011;44276;49.534;6.378;2023-11-21T08:24:49;10.93;;;4.05;;
53775;SDS011;44276;49.534;6.378;2023-11-21T08:27:18;9.70;;;4.03;;
53775;SDS011;44276;49.534;6.378;2023-11-21T08:29:46;8.07;;;4.55;;
53775;SDS011;44276;49.534;6.378;2023-11-21T08:32:14;9.98;;;4.68;;
53775;SDS011;44276;49.534;6.378;2023-11-21T08:34:42;7.63;;;4.68;;
53775;SDS011;44276;49.534;6.378;2023-11-21T08:37:14;13.95;;;4.20;;
53775;SDS011;44276;49.534;6.378;2023-11-21T08:39:44;8.40;;;3.20;;
53775;SDS011;44276;49.534;6.378;2023-11-21T08:42:13;10.82;;;3.75;;
53775;SDS011;44276;49.534;6.378;2023-11-21T08:44:41;7.28;;;2.80;;
53775;SDS011;44276;49.534;6.378;2023-11-21T08:47:09;5.55;;;2.47;;
53775;SDS011;44276;49.534;6.378;2023-11-21T08:49:38;6.60;;;2.40;;
53775;SDS011;44276;49.534;6.378;2023-11-21T08:52:06;7.95;;;3.00;;
53775;SDS011;44276;49.534;6.378;2023-11-21T08:54:34;7.38;;;3.67;;
53775;SDS011;44276;49.534;6.378;2023-11-21T08:57:04;5.25;;;2.75;;
53775;SDS011;44276;49.534;6.378;2023-11-21T08:59:32;4.80;;;3.22;;
53775;SDS011;44276;49.534;6.378;2023-11-21T09:02:00;4.13;;;3.08;;
53775;SDS011;44276;49.534;6.378;2023-11-21T09:04:28;6.28;;;2.70;;
53775;SDS011;44276;49.534;6.378;2023-11-21T09:06:57;4.00;;;3.13;;
53775;SDS011;44276;49.534;6.378;2023-11-21T09:09:26;6.30;;;2.85;;
53775;SDS011;44276;49.534;6.378;2023-11-21T09:11:56;11.75;;;4.13;;
53775;SDS011;44276;49.534;6.378;2023-11-21T09:14:28;5.18;;;2.80;;
53775;SDS011;44276;49.534;6.378;2023-11-21T09:16:56;6.93;;;2.83;;
53775;SDS011;44276;49.534;6.378;2023-11-21T09:19:24;3.55;;;2.40;;
53775;SDS011;44276;49.534;6.378;2023-11-21T09:21:53;6.22;;;2.67;;
53775;SDS011;44276;49.534;6.378;2023-11-21T09:24:23;3.85;;;2.72;;
53775;SDS011;44276;49.534;6.378;2023-11-21T09:26:52;6.18;;;2.92;;
53775;SDS011;44276;49.534;6.378;2023-11-21T09:29:20;4.65;;;2.53;;
53775;SDS011;44276;49.534;6.378;2023-11-21T09:31:50;5.13;;;2.85;;
53775;SDS011;44276;49.534;6.378;2023-11-21T09:34:18;5.13;;;3.17;;
53775;SDS011;44276;49.534;6.378;2023-11-21T09:36:47;4.88;;;3.05;;
53775;SDS011;44276;49.534;6.378;2023-11-21T09:39:16;6.03;;;2.47;;
53775;SDS011;44276;49.534;6.378;2023-11-21T09:41:46;4.25;;;2.53;;
53775;SDS011;44276;49.534;6.378;2023-11-21T09:44:22;4.32;;;2.53;;
53775;SDS011;44276;49.534;6.378;2023-11-21T09:47:04;8.38;;;3.60;;
53775;SDS011;44276;49.534;6.378;2023-11-21T09:49:37;5.45;;;3.20;;
53775;SDS011;44276;49.534;6.378;2023-11-21T09:52:07;4.47;;;2.92;;
53775;SDS011;44276;49.534;6.378;2023-11-21T09:54:42;4.75;;;2.67;;
53775;SDS011;44276;49.534;6.378;2023-11-21T09:57:10;4.68;;;2.75;;
53775;SDS011;44276;49.534;6.378;2023-11-21T09:59:40;6.07;;;3.17;;
53775;SDS011;44276;49.534;6.378;2023-11-21T10:02:11;8.50;;;4.05;;
53775;SDS011;44276;49.534;6.378;2023-11-21T10:04:41;5.47;;;3.60;;
53775;SDS011;44276;49.534;6.378;2023-11-21T10:07:10;11.25;;;5.97;;
53775;SDS011;44276;49.534;6.378;2023-11-21T10:09:41;8.35;;;3.65;;
53775;SDS011;44276;49.534;6.378;2023-11-21T10:12:10;12.73;;;4.05;;
53775;SDS011;44276;49.534;6.378;2023-11-21T10:14:42;8.77;;;3.45;;
53775;SDS011;44276;49.534;6.378;2023-11-21T10:17:16;5.45;;;3.30;;
53775;SDS011;44276;49.534;6.378;2023-11-21T10:19:46;9.15;;;4.70;;
53775;SDS011;44276;49.534;6.378;2023-11-21T10:22:15;6.40;;;3.90;;
53775;SDS011;44276;49.534;6.378;2023-11-21T10:24:45;6.85;;;3.88;;
53775;SDS011;44276;49.534;6.378;2023-11-21T10:27:19;6.13;;;4.45;;
53775;SDS011;44276;49.534;6.378;2023-11-21T10:29:47;9.95;;;5.80;;
53775;SDS011;44276;49.534;6.378;2023-11-21T10:32:20;7.53;;;4.05;;
53775;SDS011;44276;49.534;6.378;2023-11-21T10:34:55;6.68;;;3.60;;
53775;SDS011;44276;49.534;6.378;2023-11-21T10:37:25;6.50;;;4.13;;
53775;SDS011;44276;49.534;6.378;2023-11-21T10:39:56;8.02;;;4.55;;
53775;SDS011;44276;49.534;6.378;2023-11-21T10:42:26;10.52;;;4.00;;
53775;SDS011;44276;49.534;6.378;2023-11-21T10:44:54;7.43;;;3.95;;
53775;SDS011;44276;49.534;6.378;2023-11-21T10:47:24;6.90;;;4.55;;
53775;SDS011;44276;49.534;6.378;2023-11-21T10:49:53;9.98;;;6.13;;
53775;SDS011;44276;49.534;6.378;2023-11-21T10:52:21;5.60;;;3.03;;
53775;SDS011;44276;49.534;6.378;2023-11-21T10:54:54;9.10;;;3.85;;
53775;SDS011;44276;49.534;6.378;2023-11-21T10:57:25;8.13;;;4.22;;
53775;SDS011;44276;49.534;6.378;2023-11-21T10:59:54;5.82;;;3.50;;
53775;SDS011;44276;49.534;6.378;2023-11-21T11:02:25;12.60;;;6.95;;
53775;SDS011;44276;49.534;6.378;2023-11-21T11:04:55;5.57;;;3.15;;
53775;SDS011;44276;49.534;6.378;2023-11-21T11:07:27;4.18;;;2.80;;
53775;SDS011;44276;49.534;6.378;2023-11-21T11:09:59;6.80;;;3.13;;
53775;SDS011;44276;49.534;6.378;2023-11-21T11:12:30;4.07;;;2.97;;
53775;SDS011;44276;49.534;6.378;2023-11-21T11:14:58;3.90;;;2.72;;
53775;SDS011;44276;49.534;6.378;2023-11-21T11:17:30;6.68;;;3.47;;
53775;SDS011;44276;49.534;6.378;2023-11-21T11:19:59;4.82;;;3.55;;
53775;SDS011;44276;49.534;6.378;2023-11-21T11:22:29;7.85;;;3.95;;
53775;SDS011;44276;49.534;6.378;2023-11-21T11:25:18;7.53;;;2.95;;
53775;SDS011;44276;49.534;6.378;2023-11-21T11:28:02;6.65;;;3.13;;
53775;SDS011;44276;49.534;6.378;2023-11-21T11:30:41;6.57;;;3.00;;
53775;SDS011;44276;49.534;6.378;2023-11-21T11:33:29;7.90;;;2.65;;
53775;SDS011;44276;49.534;6.378;2023-11-21T11:36:08;5.40;;;2.80;;
53775;SDS011;44276;49.534;6.378;2023-11-21T11:38:45;6.25;;;3.45;;
53775;SDS011;44276;49.534;6.378;2023-11-21T11:41:23;8.43;;;3.08;;
53775;SDS011;44276;49.534;6.378;2023-11-21T11:43:54;7.97;;;3.47;;
53775;SDS011;44276;49.534;6.378;2023-11-21T11:46:34;8.88;;;3.65;;
53775;SDS011;44276;49.534;6.378;2023-11-21T11:49:10;7.60;;;3.13;;
53775;SDS011;44276;49.534;6.378;2023-11-21T11:55:00;16.85;;;3.85;;
53775;SDS011;44276;49.534;6.378;2023-11-21T11:57:30;6.63;;;3.92;;
53775;SDS011;44276;49.534;6.378;2023-11-21T12:02:48;7.60;;;3.15;;
53775;SDS011;44276;49.534;6.378;2023-11-21T12:05:20;9.07;;;3.45;;
53775;SDS011;44276;49.534;6.378;2023-11-21T12:07:50;5.15;;;3.03;;
53775;SDS011;44276;49.534;6.378;2023-11-21T12:10:20;3.85;;;3.33;;
53775;SDS011;44276;49.534;6.378;2023-11-21T12:12:51;8.20;;;3.63;;
53775;SDS011;44276;49.534;6.378;2023-11-21T12:15:21;6.25;;;3.38;;
53775;SDS011;44276;49.534;6.378;2023-11-21T12:17:51;7.25;;;3.22;;
53775;SDS011;44276;49.534;6.378;2023-11-21T12:20:22;8.77;;;3.70;;
53775;SDS011;44276;49.534;6.378;2023-11-21T12:22:53;3.67;;;2.75;;
53775;SDS011;44276;49.534;6.378;2023-11-21T12:25:25;3.90;;;2.30;;
53775;SDS011;44276;49.534;6.378;2023-11-21T12:27:56;5.25;;;3.30;;
53775;SDS011;44276;49.534;6.378;2023-11-21T12:30:25;9.07;;;4.20;;
53775;SDS011;44276;49.534;6.378;2023-11-21T12:32:57;4.97;;;3.05;;
53775;SDS011;44276;49.534;6.378;2023-11-21T12:35:29;8.43;;;3.53;;
53775;SDS011;44276;49.534;6.378;2023-11-21T12:38:01;4.28;;;2.47;;
53775;SDS011;44276;49.534;6.378;2023-11-21T12:40:31;5.53;;;2.97;;
53775;SDS011;44276;49.534;6.378;2023-11-21T12:43:00;4.78;;;3.00;;
53775;SDS011;44276;49.534;6.378;2023-11-21T12:45:31;9.73;;;3.67;;
53775;SDS011;44276;49.534;6.378;2023-11-21T12:48:00;5.22;;;2.95;;
53775;SDS011;44276;49.534;6.378;2023-11-21T12:50:36;5.90;;;1.83;;
53775;SDS011;44276;49.534;6.378;2023-11-21T12:53:06;12.02;;;3.80;;
53775;SDS011;44276;49.534;6.378;2023-11-21T12:55:38;6.55;;;2.63;;
53775;SDS011;44276;49.534;6.378;2023-11-21T12:58:09;6.10;;;2.33;;
53775;SDS011;44276;49.534;6.378;2023-11-21T13:00:40;3.55;;;2.20;;
53775;SDS011;44276;49.534;6.378;2023-11-21T13:03:12;8.70;;;2.72;;
53775;SDS011;44276;49.534;6.378;2023-11-21T13:05:47;4.40;;;2.15;;
53775;SDS011;44276;49.534;6.378;2023-11-21T13:08:19;9.77;;;2.80;;
53775;SDS011;44276;49.534;6.378;2023-11-21T13:10:51;8.23;;;3.55;;
53775;SDS011;44276;49.534;6.378;2023-11-21T13:13:24;5.15;;;1.85;;
53775;SDS011;44276;49.534;6.378;2023-11-21T13:15:55;6.85;;;2.47;;
53775;SDS011;44276;49.534;6.378;2023-11-21T13:18:27;7.00;;;2.20;;
53775;SDS011;44276;49.534;6.378;2023-11-21T13:20:59;5.32;;;3.13;;
53775;SDS011;44276;49.534;6.378;2023-11-21T13:23:34;3.10;;;2.15;;
53775;SDS011;44276;49.534;6.378;2023-11-21T13:26:04;7.38;;;2.15;;
53775;SDS011;44276;49.534;6.378;2023-11-21T13:28:33;8.13;;;2.38;;
53775;SDS011;44276;49.534;6.378;2023-11-21T13:31:05;5.20;;;2.20;;
53775;SDS011;44276;49.534;6.378;2023-11-21T13:33:48;7.95;;;2.05;;
53775;SDS011;44276;49.534;6.378;2023-11-21T13:36:24;6.88;;;2.13;;
53775;SDS011;44276;49.534;6.378;2023-11-21T13:38:56;3.20;;;1.40;;
53775;SDS011;44276;49.534;6.378;2023-11-21T13:41:25;3.03;;;1.17;;
53775;SDS011;44276;49.534;6.378;2023-11-21T13:43:58;4.10;;;1.63;;
53775;SDS011;44276;49.534;6.378;2023-11-21T13:46:35;2.25;;;1.05;;
53775;SDS011;44276;49.534;6.378;2023-11-21T13:49:04;2.85;;;1.45;;
53775;SDS011;44276;49.534;6.378;2023-11-21T13:51:37;4.32;;;2.20;;
53775;SDS011;44276;49.534;6.378;2023-11-21T13:54:09;5.13;;;2.30;;
53775;SDS011;44276;49.534;6.378;2023-11-21T13:56:38;4.72;;;3.42;;
53775;SDS011;44276;49.534;6.378;2023-11-21T13:59:06;4.88;;;1.90;;
53775;SDS011;44276;49.534;6.378;2023-11-21T14:01:43;3.58;;;1.77;;
53775;SDS011;44276;49.534;6.378;2023-11-21T14:04:26;6.00;;;1.90;;
53775;SDS011;44276;49.534;6.378;2023-11-21T14:07:18;4.25;;;2.13;;
53775;SDS011;44276;49.534;6.378;2023-11-21T14:09:53;9.40;;;2.10;;
53775;SDS011;44276;49.534;6.378;2023-11-21T14:12:21;4.63;;;1.63;;
53775;SDS011;44276;49.534;6.378;2023-11-21T14:14:49;2.58;;;1.30;;
53775;SDS011;44276;49.534;6.378;2023-11-21T14:17:17;6.53;;;1.95;;
53775;SDS011;44276;49.534;6.378;2023-11-21T14:19:48;2.85;;;1.35;;
53775;SDS011;44276;49.534;6.378;2023-11-21T14:22:18;4.40;;;1.70;;
53775;SDS011;44276;49.534;6.378;2023-11-21T14:24:47;4.80;;;1.65;;
53775;SDS011;44276;49.534;6.378;2023-11-21T14:27:18;4.05;;;2.42;;
53775;SDS011;44276;49.534;6.378;2023-11-21T14:29:47;4.28;;;2.00;;
53775;SDS011;44276;49.534;6.378;2023-11-21T14:32:15;5.07;;;2.53;;
53775;SDS011;44276;49.534;6.378;2023-11-21T14:34:43;4.15;;;1.85;;
53775;SDS011;44276;49.534;6.378;2023-11-21T14:37:13;2.55;;;1.70;;
53775;SDS011;44276;49.534;6.378;2023-11-21T14:39:43;5.30;;;1.48;;
53775;SDS011;44276;49.534;6.378;2023-11-21T14:42:15;7.88;;;1.60;;
53775;SDS011;44276;49.534;6.378;2023-11-21T14:44:51;5.40;;;1.58;;
53775;SDS011;44276;49.534;6.378;2023-11-21T14:47:21;4.18;;;2.20;;
53775;SDS011;44276;49.534;6.378;2023-11-21T14:49:53;5.03;;;3.13;;
53775;SDS011;44276;49.534;6.378;2023-11-21T14:52:24;7.53;;;3.00;;
53775;SDS011;44276;49.534;6.378;2023-11-21T14:55:02;3.75;;;2.13;;
53775;SDS011;44276;49.534;6.378;2023-11-21T14:58:04;6.53;;;3.35;;
53775;SDS011;44276;49.534;6.378;2023-11-21T15:00:37;6.40;;;3.55;;
53775;SDS011;44276;49.534;6.378;2023-11-21T15:03:11;4.05;;;2.45;;
53775;SDS011;44276;49.534;6.378;2023-11-21T15:06:01;7.38;;;3.10;;
53775;SDS011;44276;49.534;6.378;2023-11-21T15:08:48;5.10;;;3.20;;
53775;SDS011;44276;49.534;6.378;2023-11-21T15:11:25;8.35;;;5.15;;